Time;durP1;ratioP1;P1;durP2;ratioP2;P2;SDS_P1;SDS_P2;PMS_P1;PMS_P2;Temp;Humidity;BMP_temperature;BMP_pressure;BME280_temperature;BME280_humidity;BME280_pressure;Samples;Min_cycle;Max_cycle;Signal;HPM_P1;HPM_P2
2024/01/13 00:01:55;;;;;;;69.57;26.20;;;-3.90;99.90;;;;;;5028475;28;20029;-73
2024/01/13 00:04:22;;;;;;;71.43;25.63;;;-4.00;99.90;;;;;;5034460;28;20033;-75
2024/01/13 00:06:48;;;;;;;63.72;25.25;;;-4.00;99.90;;;;;;5032328;28;20029;-73
2024/01/13 00:09:14;;;;;;;68.68;25.95;;;-4.00;99.90;;;;;;5026692;28;20022;-74
2024/01/13 00:11:41;;;;;;;68.95;25.88;;;-3.90;99.90;;;;;;5042734;28;20117;-74
2024/01/13 00:14:07;;;;;;;65.90;26.48;;;-4.00;99.90;;;;;;5045771;28;20505;-74
2024/01/13 00:16:33;;;;;;;63.35;24.60;;;-4.00;99.90;;;;;;5046881;28;20064;-74
2024/01/13 00:18:59;;;;;;;63.30;24.58;;;-4.00;99.90;;;;;;5039211;28;20077;-73
2024/01/13 00:21:24;;;;;;;59.85;24.15;;;-4.00;99.90;;;;;;5034150;28;20061;-73
2024/01/13 00:23:50;;;;;;;71.75;26.05;;;-4.00;99.90;;;;;;5043046;28;20063;-73
2024/01/13 00:26:15;;;;;;;67.10;25.25;;;-4.10;99.90;;;;;;5044205;28;20030;-72
2024/01/13 00:28:41;;;;;;;69.65;26.13;;;-4.10;99.90;;;;;;5035243;28;20033;-73
2024/01/13 00:31:07;;;;;;;69.50;24.95;;;-4.10;99.90;;;;;;5034892;28;20533;-74
2024/01/13 00:33:32;;;;;;;75.50;25.77;;;-4.00;99.90;;;;;;5042487;28;20084;-73
2024/01/13 00:35:58;;;;;;;68.60;26.38;;;-4.00;99.90;;;;;;5043475;28;20032;-73
2024/01/13 00:38:25;;;;;;;73.32;27.95;;;-4.10;99.90;;;;;;5029190;28;20485;-73
2024/01/13 00:40:51;;;;;;;64.15;24.73;;;-4.00;99.90;;;;;;5033251;28;20079;-73
2024/01/13 00:43:16;;;;;;;73.20;27.95;;;-4.10;99.90;;;;;;5040230;28;20029;-73
2024/01/13 00:45:44;;;;;;;72.15;27.98;;;-4.10;99.90;;;;;;5045044;28;20057;-73
2024/01/13 00:48:09;;;;;;;73.85;27.58;;;-4.10;99.90;;;;;;5037448;28;20017;-73
2024/01/13 00:50:35;;;;;;;71.75;25.25;;;-4.00;99.90;;;;;;5046631;28;20022;-73
2024/01/13 00:53:01;;;;;;;70.72;26.73;;;-4.10;99.90;;;;;;5048341;28;20057;-74
2024/01/13 00:55:26;;;;;;;73.22;27.05;;;-4.00;99.90;;;;;;5050170;28;20024;-74
2024/01/13 00:57:52;;;;;;;79.55;27.25;;;-4.00;99.90;;;;;;5057058;28;20021;-74
2024/01/13 01:00:19;;;;;;;83.68;27.67;;;-4.00;99.90;;;;;;5063356;28;20524;-72
2024/01/13 01:02:45;;;;;;;79.72;26.50;;;-4.00;99.90;;;;;;5062738;28;20339;-72
2024/01/13 01:05:10;;;;;;;74.80;28.85;;;-4.00;99.90;;;;;;5051504;28;20025;-73
2024/01/13 01:07:36;;;;;;;84.95;30.73;;;-3.90;99.90;;;;;;5056844;28;20106;-74
2024/01/13 01:10:03;;;;;;;85.50;30.55;;;-3.90;99.90;;;;;;5047656;28;20021;-74
2024/01/13 01:12:28;;;;;;;79.82;30.25;;;-3.90;99.90;;;;;;5043906;28;20025;-73
2024/01/13 01:14:54;;;;;;;68.88;27.95;;;-3.90;99.90;;;;;;5036500;28;20039;-73
2024/01/13 01:17:20;;;;;;;75.25;28.63;;;-3.90;99.90;;;;;;5048002;28;20031;-73
2024/01/13 01:19:45;;;;;;;70.88;28.75;;;-3.90;99.90;;;;;;5049485;28;20045;-73
2024/01/13 01:22:12;;;;;;;74.22;27.63;;;-3.80;99.90;;;;;;5035903;28;20052;-73
2024/01/13 01:24:39;;;;;;;72.25;28.63;;;-3.80;99.90;;;;;;5050712;28;20401;-74
2024/01/13 01:27:05;;;;;;;71.82;27.02;;;-3.90;99.90;;;;;;5040979;28;20036;-73
2024/01/13 01:29:30;;;;;;;76.30;28.73;;;-3.90;99.90;;;;;;5049192;28;20021;-75
2024/01/13 01:31:56;;;;;;;76.65;29.75;;;-3.90;99.90;;;;;;5050744;28;20022;-73
2024/01/13 01:34:22;;;;;;;66.90;27.73;;;-3.90;99.90;;;;;;5045740;28;20048;-73
2024/01/13 01:36:47;;;;;;;73.80;28.48;;;-3.90;99.90;;;;;;5047294;28;20036;-73
2024/01/13 01:39:14;;;;;;;68.25;26.83;;;-4.00;99.90;;;;;;5036231;28;20046;-73
2024/01/13 01:41:41;;;;;;;72.88;27.20;;;-3.90;99.90;;;;;;5051018;28;20082;-74
2024/01/13 01:44:07;;;;;;;69.30;27.98;;;-3.90;99.90;;;;;;5043045;28;20025;-72
2024/01/13 01:46:33;;;;;;;70.65;28.15;;;-3.90;99.90;;;;;;5043373;28;20029;-73
2024/01/13 01:48:59;;;;;;;76.18;29.45;;;-3.90;99.90;;;;;;5035653;28;20030;-73
2024/01/13 01:51:28;;;;;;;64.78;27.25;;;-3.90;99.90;;;;;;5048001;28;20389;-73
2024/01/13 01:53:55;;;;;;;63.40;24.85;;;-3.90;99.90;;;;;;5047054;28;20162;-73
2024/01/13 01:56:28;;;;;;;70.78;26.48;;;-4.00;99.90;;;;;;5032129;28;20041;-73
2024/01/13 01:58:56;;;;;;;72.32;27.48;;;-3.90;99.90;;;;;;5043184;28;20132;-73
2024/01/13 02:01:26;;;;;;;67.80;27.70;;;-3.90;99.90;;;;;;5041723;28;20047;-73
2024/01/13 02:03:53;;;;;;;65.63;25.25;;;-3.90;99.90;;;;;;5048599;28;20126;-74
2024/01/13 02:06:20;;;;;;;67.20;27.10;;;-3.90;99.90;;;;;;5036159;28;20105;-73
2024/01/13 02:08:46;;;;;;;74.78;27.50;;;-4.00;99.90;;;;;;5047922;28;20024;-72
2024/01/13 02:11:13;;;;;;;76.22;28.83;;;-4.00;99.90;;;;;;5047803;28;20490;-73
2024/01/13 02:13:39;;;;;;;88.22;32.08;;;-3.90;99.90;;;;;;5037191;28;20048;-73
2024/01/13 02:16:09;;;;;;;82.03;29.17;;;-4.00;99.90;;;;;;5050011;28;20017;-73
2024/01/13 02:18:36;;;;;;;78.85;29.77;;;-4.00;99.90;;;;;;5037290;28;20077;-74
2024/01/13 02:21:02;;;;;;;75.65;30.25;;;-4.00;99.90;;;;;;5048265;28;20129;-74
2024/01/13 02:23:29;;;;;;;85.00;31.40;;;-4.00;99.90;;;;;;5033070;28;20037;-73
2024/01/13 02:25:55;;;;;;;85.05;34.63;;;-4.00;99.90;;;;;;5046561;28;20386;-73
2024/01/13 02:28:21;;;;;;;95.80;34.75;;;-4.00;99.90;;;;;;5039457;28;20025;-74
2024/01/13 02:30:46;;;;;;;86.88;34.33;;;-3.90;99.90;;;;;;5048456;28;20025;-73
2024/01/13 02:33:12;;;;;;;89.15;33.00;;;-3.80;99.90;;;;;;5044283;28;20032;-74
2024/01/13 02:35:38;;;;;;;82.30;31.30;;;-3.80;99.90;;;;;;5043668;28;20021;-74
2024/01/13 02:38:03;;;;;;;79.82;32.30;;;-3.80;99.90;;;;;;5042248;28;20034;-73
2024/01/13 02:40:30;;;;;;;85.78;32.97;;;-3.80;99.90;;;;;;5029033;28;20044;-74
2024/01/13 02:42:56;;;;;;;90.65;31.58;;;-3.80;99.90;;;;;;5042991;28;20025;-73
2024/01/13 02:45:21;;;;;;;78.38;30.52;;;-3.90;99.90;;;;;;5038217;28;20043;-73
2024/01/13 02:48:00;;;;;;;83.25;31.10;;;-3.90;99.90;;;;;;5048868;28;20458;-74
2024/01/13 02:50:25;;;;;;;82.78;31.65;;;-3.90;99.90;;;;;;5048124;28;20569;-73
2024/01/13 02:52:51;;;;;;;84.68;32.55;;;-4.00;99.90;;;;;;5041031;28;20127;-73
2024/01/13 02:55:18;;;;;;;95.10;33.92;;;-3.90;99.90;;;;;;5046344;28;20029;-74
2024/01/13 02:57:43;;;;;;;86.10;32.22;;;-3.90;99.90;;;;;;5048106;28;20025;-74
2024/01/13 03:00:09;;;;;;;83.32;32.25;;;-3.90;99.90;;;;;;5035440;28;20045;-74
2024/01/13 03:02:36;;;;;;;84.53;31.58;;;-3.90;99.90;;;;;;5047218;28;20091;-73
2024/01/13 03:05:01;;;;;;;87.10;30.75;;;-3.90;99.90;;;;;;5046847;28;20470;-73
2024/01/13 03:07:27;;;;;;;97.57;34.60;;;-3.90;99.90;;;;;;5047495;28;20473;-73
2024/01/13 03:09:53;;;;;;;94.15;33.40;;;-4.00;99.90;;;;;;5041384;28;20017;-72
2024/01/13 03:12:18;;;;;;;87.55;32.70;;;-4.00;99.90;;;;;;5040658;28;20030;-73
2024/01/13 03:14:45;;;;;;;94.82;33.50;;;-4.00;99.90;;;;;;5046423;28;20512;-73
2024/01/13 03:17:11;;;;;;;84.85;30.15;;;-4.00;99.90;;;;;;5040955;28;20036;-74
2024/01/13 03:19:37;;;;;;;94.85;33.45;;;-4.00;99.90;;;;;;5048438;28;20028;-73
2024/01/13 03:22:02;;;;;;;101.63;35.33;;;-4.00;99.90;;;;;;5040802;28;20080;-73
2024/01/13 03:24:29;;;;;;;93.97;34.30;;;-3.90;99.90;;;;;;5038583;28;20768;-73
2024/01/13 03:26:56;;;;;;;86.85;33.08;;;-3.90;99.90;;;;;;5041861;28;20045;-73
2024/01/13 03:29:21;;;;;;;96.57;33.92;;;-3.90;99.90;;;;;;5033665;28;20070;-73
2024/01/13 03:31:47;;;;;;;90.68;32.58;;;-3.90;99.90;;;;;;5049238;28;20021;-73
2024/01/13 03:34:13;;;;;;;85.63;31.90;;;-3.90;99.90;;;;;;5046055;28;20033;-72
2024/01/13 03:36:39;;;;;;;92.55;33.13;;;-3.90;99.90;;;;;;5044259;28;20024;-73
2024/01/13 03:39:05;;;;;;;93.97;32.88;;;-3.90;99.90;;;;;;5017682;28;20112;-73
2024/01/13 03:41:34;;;;;;;89.15;31.25;;;-3.90;99.90;;;;;;5046979;28;20041;-74
2024/01/13 03:44:00;;;;;;;82.68;32.30;;;-3.90;99.90;;;;;;5047676;28;20025;-72
2024/01/13 03:46:26;;;;;;;87.25;31.75;;;-3.90;99.90;;;;;;5046558;28;20025;-73
2024/01/13 03:48:53;;;;;;;83.22;30.75;;;-3.90;99.90;;;;;;5034256;28;20030;-73
2024/01/13 03:51:18;;;;;;;80.07;30.00;;;-3.90;99.90;;;;;;5047494;28;20037;-73
2024/01/13 03:53:45;;;;;;;81.53;30.25;;;-3.80;99.90;;;;;;5040786;28;20294;-74
2024/01/13 03:56:11;;;;;;;68.88;26.58;;;-3.70;99.90;;;;;;5046010;28;20033;-73
2024/01/13 03:58:38;;;;;;;81.68;30.88;;;-3.80;99.90;;;;;;5045644;28;20434;-73
2024/01/13 04:01:08;;;;;;;78.32;29.90;;;-3.70;99.90;;;;;;5031470;28;20493;-74
2024/01/13 04:03:33;;;;;;;86.28;31.17;;;-3.70;99.90;;;;;;5045870;28;20041;-74
2024/01/13 04:06:02;;;;;;;68.97;26.05;;;-3.70;99.90;;;;;;5046633;28;20029;-74
2024/01/13 04:08:28;;;;;;;56.25;22.58;;;-3.60;99.90;;;;;;5037214;28;20455;-73
2024/01/13 04:10:53;;;;;;;55.60;22.75;;;-3.60;99.90;;;;;;5043486;28;20116;-73
2024/01/13 04:13:19;;;;;;;59.50;24.08;;;-3.70;99.90;;;;;;5032799;28;20059;-72
2024/01/13 04:15:44;;;;;;;59.00;24.08;;;-3.70;99.90;;;;;;5047498;28;20412;-73
2024/01/13 04:18:11;;;;;;;67.20;24.63;;;-3.60;99.90;;;;;;5033315;28;20030;-73
2024/01/13 04:20:37;;;;;;;63.00;24.73;;;-3.60;99.90;;;;;;5034988;28;20053;-74
2024/01/13 04:23:03;;;;;;;66.60;24.92;;;-3.60;99.90;;;;;;5042166;28;20031;-73
2024/01/13 04:25:28;;;;;;;62.75;24.90;;;-3.70;99.90;;;;;;5028277;28;20421;-74
2024/01/13 04:27:54;;;;;;;74.53;28.25;;;-3.80;99.90;;;;;;5036361;28;20049;-73
2024/01/13 04:30:20;;;;;;;76.20;28.92;;;-3.80;99.90;;;;;;5036667;28;20394;-73
2024/01/13 04:32:47;;;;;;;90.70;32.53;;;-3.80;99.90;;;;;;5034880;28;20112;-73
2024/01/13 04:35:13;;;;;;;84.95;31.77;;;-3.80;99.90;;;;;;5038470;28;20060;-73
2024/01/13 04:37:39;;;;;;;85.05;31.40;;;-3.80;99.90;;;;;;5042063;28;20052;-73
2024/01/13 04:40:05;;;;;;;82.95;29.92;;;-3.80;99.90;;;;;;5038465;28;20021;-73
2024/01/13 04:42:34;;;;;;;73.53;26.48;;;-3.80;99.90;;;;;;5038467;28;20565;-73
2024/01/13 04:45:00;;;;;;;82.30;29.40;;;-3.80;99.90;;;;;;5043485;28;20528;-73
2024/01/13 04:47:26;;;;;;;67.50;26.83;;;-3.80;99.90;;;;;;5017496;28;20288;-73
2024/01/13 04:49:51;;;;;;;69.22;27.52;;;-3.80;99.90;;;;;;5033125;28;20060;-73
2024/01/13 04:52:17;;;;;;;89.05;33.50;;;-3.90;99.90;;;;;;5038266;28;20048;-73
2024/01/13 04:54:43;;;;;;;89.22;31.58;;;-3.90;99.90;;;;;;5040001;28;20037;-73
2024/01/13 04:57:08;;;;;;;80.18;30.45;;;-3.90;99.90;;;;;;5034083;28;20028;-73
2024/01/13 04:59:34;;;;;;;83.65;30.23;;;-3.90;99.90;;;;;;5033069;28;20033;-73
2024/01/13 05:02:00;;;;;;;85.45;31.35;;;-3.90;99.90;;;;;;5036843;28;20021;-73
2024/01/13 05:04:26;;;;;;;88.47;32.58;;;-3.90;99.90;;;;;;5031852;28;20028;-73
2024/01/13 05:06:52;;;;;;;92.13;30.23;;;-3.90;99.90;;;;;;5044403;28;20423;-73
2024/01/13 05:09:18;;;;;;;95.97;33.70;;;-3.90;99.90;;;;;;5029256;28;20022;-73
2024/01/13 05:11:44;;;;;;;93.80;33.38;;;-3.90;99.90;;;;;;5038302;28;20021;-72
2024/01/13 05:14:09;;;;;;;91.70;31.42;;;-3.90;99.90;;;;;;5038869;28;20036;-72
2024/01/13 05:16:35;;;;;;;83.38;31.63;;;-3.90;99.90;;;;;;5051164;28;20032;-73
2024/01/13 05:19:01;;;;;;;93.63;34.08;;;-3.90;99.90;;;;;;5048697;28;20021;-72
2024/01/13 05:21:26;;;;;;;87.90;31.25;;;-3.90;99.90;;;;;;5035748;28;20410;-73
2024/01/13 05:23:52;;;;;;;91.47;32.85;;;-3.90;99.90;;;;;;5038959;28;20465;-73
2024/01/13 05:26:17;;;;;;;93.45;33.47;;;-3.90;99.90;;;;;;5042146;28;20952;-72
2024/01/13 05:28:43;;;;;;;91.50;31.05;;;-4.00;99.90;;;;;;5038955;28;20026;-72
2024/01/13 05:31:09;;;;;;;93.07;31.63;;;-4.00;99.90;;;;;;5035997;28;20112;-73
2024/01/13 05:33:34;;;;;;;104.43;34.83;;;-3.90;99.90;;;;;;5049703;28;20051;-71
2024/01/13 05:36:00;;;;;;;98.28;34.78;;;-3.90;99.90;;;;;;5050360;28;20098;-72
2024/01/13 05:38:26;;;;;;;90.60;31.13;;;-3.90;99.90;;;;;;5048630;28;20033;-72
2024/01/13 05:40:51;;;;;;;87.50;31.10;;;-3.90;99.90;;;;;;5032295;28;20498;-74
2024/01/13 05:43:18;;;;;;;98.50;33.08;;;-3.90;99.90;;;;;;5036910;28;20055;-74
2024/01/13 05:45:44;;;;;;;94.97;32.15;;;-3.90;99.90;;;;;;5040802;28;20163;-73
2024/01/13 05:48:10;;;;;;;92.55;32.42;;;-3.90;99.90;;;;;;5046319;28;20048;-74
2024/01/13 05:50:36;;;;;;;91.28;33.22;;;-3.90;99.90;;;;;;5045796;28;20037;-73
2024/01/13 05:53:02;;;;;;;87.85;30.75;;;-3.90;99.90;;;;;;5043545;28;20025;-73
2024/01/13 05:55:27;;;;;;;76.57;28.90;;;-3.90;99.90;;;;;;5019277;28;20409;-74
2024/01/13 05:57:53;;;;;;;80.35;30.33;;;-3.90;99.90;;;;;;5038171;28;20033;-73
2024/01/13 06:00:19;;;;;;;74.28;27.40;;;-3.90;99.90;;;;;;5020538;28;20120;-74
2024/01/13 06:02:44;;;;;;;77.00;28.15;;;-3.90;99.90;;;;;;5036875;28;20037;-74
2024/01/13 06:05:11;;;;;;;80.20;28.40;;;-3.80;99.90;;;;;;5041947;28;20087;-72
2024/01/13 06:07:38;;;;;;;73.15;26.60;;;-3.80;99.90;;;;;;5041344;28;20037;-75
2024/01/13 06:10:04;;;;;;;73.60;26.90;;;-3.80;99.90;;;;;;5023619;28;20061;-75
2024/01/13 06:12:31;;;;;;;72.47;24.08;;;-3.70;99.90;;;;;;5037559;28;20526;-72
2024/01/13 06:14:57;;;;;;;75.72;25.58;;;-3.70;99.90;;;;;;5042997;28;20044;-72
2024/01/13 06:17:23;;;;;;;70.32;25.33;;;-3.70;99.90;;;;;;5037392;28;20033;-72
2024/01/13 06:19:48;;;;;;;78.22;27.20;;;-3.80;99.90;;;;;;5037929;28;20029;-72
2024/01/13 06:22:14;;;;;;;72.47;27.10;;;-3.70;99.90;;;;;;5041471;28;20067;-72
2024/01/13 06:24:40;;;;;;;72.18;27.40;;;-3.80;99.90;;;;;;5040461;28;20435;-74
2024/01/13 06:27:05;;;;;;;69.72;26.42;;;-3.80;99.90;;;;;;5042534;28;20107;-72
2024/01/13 06:29:31;;;;;;;74.30;26.70;;;-3.80;99.90;;;;;;5043446;28;20028;-73
2024/01/13 06:31:57;;;;;;;71.35;25.58;;;-3.80;99.90;;;;;;5045330;28;20044;-74
2024/01/13 06:34:24;;;;;;;71.82;25.55;;;-3.80;99.90;;;;;;5042204;28;20021;-73
2024/01/13 06:36:49;;;;;;;78.80;27.48;;;-3.70;99.90;;;;;;5044748;28;20108;-74
2024/01/13 06:39:16;;;;;;;73.55;25.73;;;-3.70;99.90;;;;;;5038320;28;20115;-74
2024/01/13 06:41:42;;;;;;;83.10;27.00;;;-3.70;99.90;;;;;;5040453;28;20034;-74
2024/01/13 06:44:08;;;;;;;74.30;27.00;;;-3.70;99.90;;;;;;5045310;28;20037;-74
2024/01/13 06:46:34;;;;;;;80.05;28.10;;;-3.80;99.90;;;;;;5040428;28;20045;-74
2024/01/13 06:48:59;;;;;;;78.85;28.95;;;-3.80;99.90;;;;;;5052440;28;20041;-73
2024/01/13 06:51:25;;;;;;;78.55;26.92;;;-3.80;99.90;;;;;;5062515;28;20367;-74
2024/01/13 06:53:50;;;;;;;87.75;30.83;;;-3.80;99.90;;;;;;5042142;28;20051;-74
2024/01/13 06:56:16;;;;;;;87.70;29.42;;;-3.70;99.90;;;;;;5032376;28;20022;-74
2024/01/13 06:58:42;;;;;;;77.68;29.15;;;-3.60;99.90;;;;;;5030885;28;20029;-74
2024/01/13 07:01:13;;;;;;;74.20;26.20;;;-3.70;99.90;;;;;;5048259;28;20032;-74
2024/01/13 07:03:41;;;;;;;82.35;28.23;;;-3.70;99.90;;;;;;5035738;28;20048;-74
2024/01/13 07:06:07;;;;;;;79.85;27.42;;;-3.70;99.90;;;;;;5052971;28;20031;-74
2024/01/13 07:08:33;;;;;;;73.28;27.92;;;-3.70;99.90;;;;;;5036093;28;20120;-73
2024/01/13 07:10:58;;;;;;;89.80;29.48;;;-3.80;99.90;;;;;;5049289;28;20032;-73
2024/01/13 07:13:24;;;;;;;83.10;28.45;;;-3.80;99.90;;;;;;5035369;28;20023;-74
2024/01/13 07:15:50;;;;;;;82.68;29.83;;;-3.80;99.90;;;;;;5059517;28;20021;-73
2024/01/13 07:18:16;;;;;;;87.40;28.38;;;-3.70;99.90;;;;;;5039968;28;20067;-74
2024/01/13 07:20:41;;;;;;;80.03;27.90;;;-3.70;99.90;;;;;;5052389;28;20052;-74
2024/01/13 07:23:07;;;;;;;80.25;29.20;;;-3.60;99.90;;;;;;5045854;28;20116;-73
2024/01/13 07:25:33;;;;;;;85.00;28.00;;;-3.70;99.90;;;;;;5039266;28;20082;-72
2024/01/13 07:27:59;;;;;;;79.72;28.42;;;-3.70;99.90;;;;;;5041322;28;20048;-72
2024/01/13 07:30:26;;;;;;;96.07;32.10;;;-3.80;99.90;;;;;;5050595;28;20092;-72
2024/01/13 07:32:51;;;;;;;85.63;30.13;;;-3.80;99.90;;;;;;5056495;28;20040;-72
2024/01/13 07:35:17;;;;;;;85.47;29.65;;;-3.80;99.90;;;;;;5035832;28;20082;-72
2024/01/13 07:37:43;;;;;;;88.25;30.33;;;-3.80;99.90;;;;;;5044004;28;20063;-73
2024/01/13 07:40:09;;;;;;;83.55;29.98;;;-3.80;99.90;;;;;;5028267;28;20494;-73
2024/01/13 07:42:39;;;;;;;88.70;30.38;;;-3.80;99.90;;;;;;5030953;28;20038;-72
2024/01/13 07:45:05;;;;;;;87.35;29.23;;;-3.70;99.90;;;;;;5031973;28;20022;-73
2024/01/13 07:47:31;;;;;;;79.82;27.60;;;-3.80;99.90;;;;;;5031641;28;20030;-72
2024/01/13 07:49:56;;;;;;;83.75;28.52;;;-3.80;99.90;;;;;;5036808;28;20029;-75
2024/01/13 07:52:22;;;;;;;81.00;27.73;;;-3.80;99.90;;;;;;5036553;28;20092;-78
2024/01/13 07:54:48;;;;;;;76.13;26.92;;;-3.80;99.90;;;;;;5038081;28;20587;-74
2024/01/13 07:57:14;;;;;;;79.28;29.75;;;-3.70;99.90;;;;;;5037281;28;20028;-76
2024/01/13 07:59:40;;;;;;;75.97;25.90;;;-3.80;99.90;;;;;;5037528;28;20036;-77
2024/01/13 08:02:05;;;;;;;67.20;23.88;;;-3.70;99.90;;;;;;5039300;28;20486;-79
2024/01/13 08:04:31;;;;;;;65.88;23.48;;;-3.70;99.90;;;;;;5037108;28;20067;-77
2024/01/13 08:06:57;;;;;;;67.72;24.27;;;-3.70;99.90;;;;;;5030857;28;20426;-76
2024/01/13 08:09:23;;;;;;;67.82;24.52;;;-3.70;99.90;;;;;;5043619;28;20028;-73
2024/01/13 08:11:48;;;;;;;70.65;24.65;;;-3.60;99.90;;;;;;5053121;28;20021;-74
2024/01/13 08:14:18;;;;;;;65.55;24.00;;;-3.60;99.90;;;;;;5051973;28;20056;-74
2024/01/13 08:16:44;;;;;;;62.03;22.80;;;-3.70;99.90;;;;;;5041952;28;20033;-77
2024/01/13 08:19:10;;;;;;;68.18;21.83;;;-3.60;99.90;;;;;;5046440;28;20035;-84
2024/01/13 08:21:36;;;;;;;63.40;24.75;;;-3.60;99.90;;;;;;5046856;28;20049;-81
2024/01/13 08:24:02;;;;;;;62.17;22.75;;;-3.60;99.90;;;;;;5036326;28;20033;-78
2024/01/13 08:26:30;;;;;;;63.17;23.63;;;-3.50;99.90;;;;;;5033465;28;20088;-78
2024/01/13 08:28:56;;;;;;;61.88;22.90;;;-3.50;99.90;;;;;;5050316;28;20094;-78
2024/01/13 08:31:28;;;;;;;65.43;24.13;;;-3.50;99.90;;;;;;5056750;28;20246;-75
2024/01/13 08:33:54;;;;;;;61.22;22.45;;;-3.40;99.90;;;;;;5039093;28;20565;-75
2024/01/13 08:36:20;;;;;;;57.38;20.13;;;-3.40;99.90;;;;;;5055703;28;20512;-74
2024/01/13 08:38:46;;;;;;;59.33;21.35;;;-3.40;99.90;;;;;;5045329;28;20048;-76
2024/01/13 08:41:11;;;;;;;55.38;21.42;;;-3.40;99.90;;;;;;5050733;28;20460;-77
2024/01/13 08:43:37;;;;;;;60.97;22.58;;;-3.40;99.90;;;;;;5049571;28;20021;-75
2024/01/13 08:46:03;;;;;;;51.30;19.42;;;-3.30;99.90;;;;;;5048846;28;20100;-75
2024/01/13 08:48:29;;;;;;;53.08;19.95;;;-3.30;99.90;;;;;;5040704;28;20402;-75
2024/01/13 08:50:54;;;;;;;48.70;18.25;;;-3.20;99.90;;;;;;5039580;28;20038;-78
2024/01/13 08:53:20;;;;;;;49.92;18.33;;;-3.20;99.90;;;;;;5038483;28;20493;-77
2024/01/13 08:55:46;;;;;;;45.90;18.42;;;-3.10;99.90;;;;;;5046277;28;20025;-76
2024/01/13 08:58:11;;;;;;;40.10;15.80;;;-3.00;99.90;;;;;;5036002;28;20036;-77
2024/01/13 09:00:37;;;;;;;41.85;16.05;;;-3.00;99.90;;;;;;5032427;28;20028;-76
2024/01/13 09:03:03;;;;;;;35.65;13.77;;;-2.80;99.90;;;;;;5042041;28;20017;-76
2024/01/13 09:05:28;;;;;;;37.60;15.02;;;-2.80;99.90;;;;;;5046534;28;20113;-76
2024/01/13 09:07:57;;;;;;;32.20;13.77;;;-2.80;99.90;;;;;;5043777;28;20021;-75
2024/01/13 09:10:24;;;;;;;34.95;13.52;;;-2.80;99.90;;;;;;5043823;28;20013;-75
2024/01/13 09:12:51;;;;;;;38.00;14.73;;;-2.80;99.90;;;;;;5043663;28;20079;-76
2024/01/13 09:15:17;;;;;;;36.95;14.27;;;-2.80;99.90;;;;;;5046967;28;20033;-77
2024/01/13 09:17:43;;;;;;;31.05;13.65;;;-2.70;99.90;;;;;;5040598;28;20037;-77
2024/01/13 09:20:11;;;;;;;36.45;13.30;;;-2.60;99.90;;;;;;5050820;28;20045;-78
2024/01/13 09:22:38;;;;;;;21.70;9.55;;;-2.60;99.90;;;;;;5038986;28;20037;-76
2024/01/13 09:25:04;;;;;;;25.45;9.82;;;-2.70;99.90;;;;;;5036361;28;20021;-76
2024/01/13 09:27:31;;;;;;;25.40;9.70;;;-2.70;99.90;;;;;;5034887;28;20055;-76
2024/01/13 09:29:57;;;;;;;21.10;8.13;;;-2.70;99.90;;;;;;5042057;28;20025;-76
2024/01/13 09:32:23;;;;;;;25.38;8.80;;;-2.70;99.90;;;;;;5046045;28;20112;-77
2024/01/13 09:34:49;;;;;;;15.85;6.13;;;-2.60;99.90;;;;;;5052677;28;20247;-76
2024/01/13 09:37:15;;;;;;;15.63;7.63;;;-2.60;99.90;;;;;;5044079;28;20033;-76
2024/01/13 09:39:41;;;;;;;18.90;7.10;;;-2.60;99.90;;;;;;5045850;28;20040;-76
2024/01/13 09:42:08;;;;;;;23.85;8.75;;;-2.60;99.90;;;;;;5036713;28;20017;-76
2024/01/13 09:44:34;;;;;;;15.45;6.80;;;-2.50;99.90;;;;;;5038044;28;20033;-76
2024/01/13 09:47:00;;;;;;;13.88;5.93;;;-2.50;99.90;;;;;;5035179;28;20105;-76
2024/01/13 09:49:29;;;;;;;14.40;5.93;;;-2.40;99.90;;;;;;5059637;28;20024;-75
2024/01/13 09:51:56;;;;;;;15.10;6.85;;;-2.50;99.90;;;;;;5052711;28;20482;-75
2024/01/13 09:54:26;;;;;;;13.05;6.25;;;-2.60;99.90;;;;;;5044151;28;20417;-75
2024/01/13 09:56:54;;;;;;;11.65;6.57;;;-2.60;99.90;;;;;;5055583;28;20029;-76
2024/01/13 09:59:22;;;;;;;15.32;7.00;;;-2.60;99.90;;;;;;5041935;28;20060;-75
2024/01/13 10:01:51;;;;;;;13.57;5.60;;;-2.60;99.90;;;;;;5045064;28;20036;-75
2024/01/13 10:04:17;;;;;;;14.25;6.50;;;-2.60;99.90;;;;;;5044758;28;20071;-75
2024/01/13 10:06:45;;;;;;;17.48;7.75;;;-2.60;99.90;;;;;;5035703;28;20501;-75
2024/01/13 10:09:11;;;;;;;14.02;7.55;;;-2.40;99.90;;;;;;5040384;28;20047;-76
2024/01/13 10:11:37;;;;;;;17.90;8.27;;;-2.40;99.90;;;;;;5038894;28;20029;-76
2024/01/13 10:14:06;;;;;;;17.92;8.63;;;-2.50;99.90;;;;;;5028475;28;20030;-75
2024/01/13 10:16:34;;;;;;;17.58;8.75;;;-2.50;99.90;;;;;;5042691;28;20117;-75
2024/01/13 10:19:07;;;;;;;19.52;8.60;;;-2.50;99.90;;;;;;5052481;28;20025;-76
2024/01/13 10:21:37;;;;;;;23.40;9.57;;;-2.50;99.90;;;;;;5033628;28;20041;-76
2024/01/13 10:24:04;;;;;;;18.35;8.32;;;-2.40;99.90;;;;;;5038346;28;20366;-77
2024/01/13 10:26:31;;;;;;;16.10;8.45;;;-2.50;99.90;;;;;;5044727;28;20474;-75
2024/01/13 10:28:59;;;;;;;18.45;8.77;;;-2.50;99.90;;;;;;5055130;28;20048;-76
2024/01/13 10:31:25;;;;;;;18.83;8.27;;;-2.50;99.90;;;;;;5044335;28;20033;-78
2024/01/13 10:33:52;;;;;;;19.77;8.85;;;-2.40;99.90;;;;;;5046284;28;20048;-75
2024/01/13 10:36:23;;;;;;;18.90;7.65;;;-2.30;99.90;;;;;;5047980;28;20017;-76
2024/01/13 10:38:49;;;;;;;21.70;9.25;;;-2.40;99.90;;;;;;5047005;28;20029;-76
2024/01/13 10:41:16;;;;;;;21.42;9.82;;;-2.30;99.90;;;;;;5029789;28;20164;-75
2024/01/13 10:43:43;;;;;;;20.20;9.20;;;-2.30;99.90;;;;;;5042751;28;20440;-77
2024/01/13 10:46:11;;;;;;;22.98;10.13;;;-2.20;99.90;;;;;;5049927;28;20029;-75
2024/01/13 10:48:42;;;;;;;21.13;10.05;;;-2.30;99.90;;;;;;5062365;28;20025;-77
2024/01/13 10:51:19;;;;;;;22.80;9.82;;;-2.30;99.90;;;;;;5061808;28;20523;-76
2024/01/13 10:53:46;;;;;;;21.83;10.68;;;-2.30;99.90;;;;;;5035358;28;20907;-76
2024/01/13 10:56:15;;;;;;;23.55;11.02;;;-2.30;99.90;;;;;;5048875;28;20029;-76
2024/01/13 10:58:44;;;;;;;22.38;10.02;;;-2.30;99.90;;;;;;5036916;28;20029;-76
2024/01/13 11:01:10;;;;;;;25.90;10.80;;;-2.30;99.90;;;;;;5039131;28;21536;-76
2024/01/13 11:03:38;;;;;;;26.05;11.68;;;-2.20;99.90;;;;;;5040788;28;20025;-75
2024/01/13 11:06:04;;;;;;;24.45;10.98;;;-2.20;99.90;;;;;;5049648;28;20075;-76
2024/01/13 11:08:30;;;;;;;24.88;11.35;;;-2.20;99.90;;;;;;5039043;28;20084;-76
2024/01/13 11:10:58;;;;;;;25.27;12.18;;;-2.20;99.90;;;;;;5041864;28;20032;-76
2024/01/13 11:13:56;;;;;;;26.27;12.02;;;-2.20;99.90;;;;;;5037004;28;20499;-76
2024/01/13 11:16:25;;;;;;;24.30;12.05;;;-2.20;99.90;;;;;;5028627;28;20093;-76
2024/01/13 11:18:53;;;;;;;25.20;11.63;;;-2.20;99.90;;;;;;5037106;28;20022;-76
2024/01/13 11:21:22;;;;;;;24.65;10.85;;;-2.20;99.90;;;;;;5034894;28;20057;-76
2024/01/13 11:23:58;;;;;;;24.23;12.32;;;-2.00;99.90;;;;;;5040704;28;20126;-76
2024/01/13 11:26:42;;;;;;;29.13;12.98;;;-2.00;99.90;;;;;;5042976;28;20017;-75
2024/01/13 11:29:24;;;;;;;25.60;11.25;;;-2.00;99.90;;;;;;5035438;28;20025;-76
2024/01/13 11:32:00;;;;;;;24.13;11.32;;;-2.00;99.90;;;;;;5043426;28;20028;-76
2024/01/13 11:34:29;;;;;;;23.83;11.27;;;-2.10;99.90;;;;;;5029702;28;20033;-76
2024/01/13 11:36:59;;;;;;;22.95;10.70;;;-2.10;99.90;;;;;;5036379;28;20033;-77
2024/01/13 11:39:25;;;;;;;27.13;11.70;;;-2.10;99.90;;;;;;5041900;28;20025;-74
2024/01/13 11:41:54;;;;;;;23.08;11.13;;;-2.10;99.90;;;;;;5034983;28;20498;-76
2024/01/13 11:44:30;;;;;;;27.75;12.75;;;-2.10;99.90;;;;;;5025751;28;20080;-74
2024/01/13 11:47:09;;;;;;;22.65;11.57;;;-2.00;99.90;;;;;;5042456;28;20382;-75
2024/01/13 11:49:44;;;;;;;27.80;12.00;;;-1.90;99.90;;;;;;5044828;28;20025;-75
2024/01/13 11:52:11;;;;;;;26.42;12.90;;;-1.80;99.90;;;;;;5046829;28;20033;-76
2024/01/13 11:54:38;;;;;;;25.63;11.35;;;-1.80;99.90;;;;;;5030147;28;20482;-75
2024/01/13 11:57:09;;;;;;;23.38;10.50;;;-1.70;99.90;;;;;;5038215;28;20174;-75
2024/01/13 11:59:35;;;;;;;23.70;11.18;;;-1.60;99.90;;;;;;5039947;28;20033;-74
2024/01/13 12:02:01;;;;;;;24.55;10.45;;;-1.50;99.90;;;;;;5050091;28;20147;-74
2024/01/13 12:04:33;;;;;;;20.38;10.65;;;-1.40;99.90;;;;;;5045049;28;20052;-75
2024/01/13 12:07:00;;;;;;;18.52;9.60;;;-1.50;99.90;;;;;;5038310;28;20033;-75
2024/01/13 12:09:27;;;;;;;20.40;11.05;;;-1.50;99.90;;;;;;5014341;28;20137;-74
2024/01/13 12:11:58;;;;;;;21.23;11.38;;;-1.50;99.90;;;;;;5036570;28;20474;-75
2024/01/13 12:14:28;;;;;;;26.02;11.68;;;-1.60;99.90;;;;;;5033908;28;20621;-75
2024/01/13 12:16:54;;;;;;;;;;;-1.60;99.90;;;;;;5034688;28;20397;-74
2024/01/13 12:19:20;;;;;;;24.20;11.52;;;-1.70;99.90;;;;;;5035749;28;19912;-76
2024/01/13 12:21:46;;;;;;;22.80;10.98;;;-1.60;99.90;;;;;;5037726;28;20104;-75
2024/01/13 12:24:13;;;;;;;25.35;11.43;;;-1.50;99.90;;;;;;5042964;28;20037;-74
2024/01/13 12:26:39;;;;;;;24.42;10.68;;;-1.40;99.90;;;;;;5051060;28;20021;-74